Time;durP1;ratioP1;P1;durP2;ratioP2;P2;SDS_P1;SDS_P2;PMS_P1;PMS_P2;Temp;Humidity;BMP_temperature;BMP_pressure;BME280_temperature;BME280_humidity;BME280_pressure;Samples;Min_cycle;Max_cycle;Signal;HPM_P1;HPM_P2
2021/11/05 00:00:53;;;;;;;1.67;1.13;;;17.40;83.80;;;21.47;41.72;94502.13;6069004;19;20018;-81
2021/11/05 00:02:57;;;;;;;2.42;1.20;;;17.40;83.70;;;21.46;41.96;94497.81;6075267;19;20391;-80
2021/11/05 00:04:58;;;;;;;1.20;1.10;;;17.40;83.80;;;21.45;42.02;94505.16;6080327;19;20010;-81
2021/11/05 00:07:01;;;;;;;3.13;1.40;;;17.30;83.50;;;21.45;41.58;94507.06;6093289;19;20027;-80
2021/11/05 00:09:03;;;;;;;1.30;1.20;;;17.40;83.60;;;21.45;41.67;94504.38;6075445;19;19999;-80
2021/11/05 00:11:03;;;;;;;1.58;1.48;;;17.40;83.70;;;21.45;42.03;94510.59;6059954;19;20047;-81
2021/11/05 00:13:05;;;;;;;1.20;1.10;;;17.40;83.60;;;21.45;41.98;94512.50;6071145;19;20046;-81
2021/11/05 00:15:06;;;;;;;1.45;1.35;;;17.40;83.60;;;21.44;41.77;94511.72;6065977;19;20009;-81
2021/11/05 00:17:08;;;;;;;1.52;1.42;;;17.40;83.50;;;21.45;41.83;94510.59;6077091;19;20018;-80
2021/11/05 00:19:09;;;;;;;1.40;1.30;;;17.40;83.40;;;21.43;41.63;94515.56;6073945;19;20374;-80
2021/11/05 00:21:10;;;;;;;2.33;1.65;;;17.40;83.40;;;21.44;41.62;94519.06;6064423;19;20014;-81
2021/11/05 00:23:13;;;;;;;2.20;1.10;;;17.40;83.30;;;21.43;41.81;94517.47;6067775;19;20063;-81
2021/11/05 00:25:14;;;;;;;1.75;1.50;;;17.40;83.30;;;21.42;41.76;94522.09;6075230;19;20002;-80
2021/11/05 00:27:15;;;;;;;1.45;1.35;;;17.40;83.30;;;21.40;41.60;94516.22;6081850;19;20006;-79
2021/11/05 00:29:19;;;;;;;1.60;1.50;;;17.40;83.30;;;21.40;41.95;94520.84;6073373;19;20074;-80
2021/11/05 00:31:20;;;;;;;2.03;1.20;;;17.40;83.30;;;21.40;42.01;94513.50;6062379;19;20894;-81
2021/11/05 00:33:20;;;;;;;1.17;1.02;;;17.40;83.30;;;21.40;41.97;94515.44;6057975;19;20071;-79
2021/11/05 00:35:21;;;;;;;1.40;1.13;;;17.40;83.30;;;21.39;41.81;94521.97;6062868;19;20015;-80
2021/11/05 00:37:22;;;;;;;1.20;1.10;;;17.30;83.20;;;21.39;41.86;94521.97;6067655;19;20006;-79
2021/11/05 00:39:23;;;;;;;1.23;1.13;;;17.30;83.20;;;21.39;41.83;94521.97;6049347;19;20510;-81
2021/11/05 00:41:24;;;;;;;1.30;1.20;;;17.30;83.20;;;21.36;41.46;94518.00;6076119;19;20045;-80
2021/11/05 00:43:25;;;;;;;1.25;1.15;;;17.30;83.20;;;21.36;41.49;94517.22;6078232;19;20035;-81
2021/11/05 00:45:26;;;;;;;1.00;0.90;;;17.30;83.20;;;21.34;41.79;94522.97;6071332;19;20011;-80
2021/11/05 00:47:27;;;;;;;1.40;1.30;;;17.30;83.20;;;21.33;41.71;94524.09;6064809;19;20018;-80
2021/11/05 00:49:28;;;;;;;1.33;1.23;;;17.30;83.20;;;21.34;41.82;94524.88;6078194;19;20042;-80
2021/11/05 00:51:29;;;;;;;1.67;1.38;;;17.40;83.40;;;21.32;41.79;94522.50;6069143;19;21668;-80
2021/11/05 00:53:30;;;;;;;1.83;1.35;;;17.30;83.30;;;21.30;41.95;94524.75;6064414;19;21123;-80
2021/11/05 00:55:30;;;;;;;1.13;1.02;;;17.30;83.30;;;21.30;41.74;94534.81;6068832;19;20066;-80
2021/11/05 00:57:31;;;;;;;1.25;1.15;;;17.30;84.10;;;21.29;42.10;94527.81;6048527;19;21331;-81
2021/11/05 00:59:32;;;;;;;1.30;1.20;;;17.30;83.30;;;21.29;41.75;94527.81;6068406;19;20014;-80
2021/11/05 01:01:33;;;;;;;1.48;1.15;;;17.30;83.40;;;21.26;41.74;94521.91;6075567;19;20477;-80
2021/11/05 01:03:34;;;;;;;1.58;1.38;;;17.30;83.30;;;21.27;42.12;94525.44;6066593;19;20006;-81
2021/11/05 01:05:36;;;;;;;1.88;1.60;;;17.20;83.40;;;21.25;41.81;94517.63;6068915;19;20022;-80
2021/11/05 01:07:37;;;;;;;1.10;1.00;;;17.20;83.30;;;21.25;41.87;94525.75;6081118;19;20021;-80
2021/11/05 01:09:38;;;;;;;2.17;1.73;;;17.30;83.50;;;21.24;41.94;94529.59;6067213;19;20527;-79
2021/11/05 01:11:38;;;;;;;1.10;1.00;;;17.20;83.40;;;21.25;41.95;94524.97;6067790;19;20022;-80
2021/11/05 01:13:40;;;;;;;1.30;1.20;;;17.20;83.40;;;21.25;41.95;94524.97;6076714;19;20945;-80
2021/11/05 01:15:41;;;;;;;1.17;1.08;;;17.30;83.50;;;21.25;41.96;94533.91;6067326;19;20015;-79
2021/11/05 01:17:42;;;;;;;1.10;1.00;;;17.30;83.60;;;21.27;42.01;94538.97;6064613;19;20056;-79
2021/11/05 01:19:43;;;;;;;1.10;1.00;;;17.30;83.50;;;21.26;41.81;94534.69;6064655;19;20014;-80
2021/11/05 01:21:44;;;;;;;1.33;1.23;;;17.30;83.40;;;21.26;41.91;94540.09;6066586;19;20006;-80
2021/11/05 01:23:45;;;;;;;2.33;1.25;;;17.30;83.40;;;21.27;42.07;94534.34;6069853;19;20712;-80
2021/11/05 01:25:46;;;;;;;1.27;1.17;;;17.30;83.40;;;21.27;41.71;94541.69;6069296;19;20043;-81
2021/11/05 01:27:49;;;;;;;1.73;1.10;;;17.30;83.40;;;21.29;41.91;94533.22;6058430;19;20015;-80
2021/11/05 01:29:56;;;;;;;1.30;1.20;;;17.30;83.40;;;21.29;41.85;94536.72;6058948;19;20056;-81
2021/11/05 01:31:57;;;;;;;1.08;0.90;;;17.40;83.50;;;21.29;41.88;94531.31;6082221;19;20010;-80
2021/11/05 01:33:58;;;;;;;1.75;1.40;;;17.30;83.30;;;21.30;41.76;94532.09;6055360;19;20032;-79
2021/11/05 01:36:00;;;;;;;1.30;1.20;;;17.30;83.30;;;21.31;41.74;94536.41;6070562;19;20085;-78
2021/11/05 01:38:02;;;;;;;1.20;1.10;;;17.40;83.40;;;21.31;42.13;94537.19;6072726;19;20737;-79
2021/11/05 01:40:05;;;;;;;1.33;1.23;;;17.30;83.20;;;21.31;41.78;94534.47;6059571;19;20044;-79
2021/11/05 01:42:06;;;;;;;0.90;0.90;;;17.30;83.20;;;21.32;41.92;94532.56;6056109;19;20082;-79
2021/11/05 01:44:07;;;;;;;1.10;1.00;;;17.30;83.20;;;21.32;42.11;94538.78;6064319;19;20620;-79
2021/11/05 01:46:08;;;;;;;1.13;1.02;;;17.30;83.10;;;21.31;41.96;94529.06;6053197;19;20073;-78
2021/11/05 01:48:10;;;;;;;1.48;1.10;;;17.30;83.20;;;21.32;42.11;94535.28;6066149;19;20050;-79
2021/11/05 01:50:11;;;;;;;1.67;1.30;;;17.30;83.10;;;21.31;41.58;94531.78;6054724;19;20013;-79
2021/11/05 01:52:14;;;;;;;1.05;1.00;;;17.30;83.10;;;21.31;41.75;94529.06;6056736;19;20010;-79
2021/11/05 01:54:15;;;;;;;1.35;1.20;;;17.30;83.20;;;21.31;41.59;94537.19;6057193;19;20070;-79
2021/11/05 01:56:17;;;;;;;1.30;1.20;;;17.30;83.10;;;21.30;41.97;94535.59;6059932;19;20018;-79
2021/11/05 01:58:20;;;;;;;1.08;0.98;;;17.30;83.10;;;21.30;41.67;94532.91;6064662;19;20756;-79
2021/11/05 02:00:26;;;;;;;1.02;1.00;;;17.30;83.10;;;21.30;41.54;94538.31;6059774;19;20108;-79
2021/11/05 02:02:27;;;;;;;1.10;1.00;;;17.30;83.10;;;21.30;42.02;94540.22;6074159;19;20018;-79
2021/11/05 02:04:28;;;;;;;1.77;1.05;;;17.30;83.10;;;21.28;41.76;94537.84;6067487;19;20010;-79
2021/11/05 02:06:29;;;;;;;2.05;1.20;;;17.30;83.10;;;21.27;41.53;94547.91;6059659;19;20069;-80
2021/11/05 02:08:30;;;;;;;2.13;0.80;;;17.30;83.20;;;21.27;41.81;94541.69;6061064;19;20017;-79
2021/11/05 02:10:32;;;;;;;1.20;1.10;;;17.30;83.20;;;21.26;41.63;94543.59;6068628;19;20042;-79
2021/11/05 02:12:33;;;;;;;1.60;1.50;;;17.30;83.20;;;21.25;41.98;94539.31;6074435;19;20096;-80
2021/11/05 02:14:35;;;;;;;0.85;0.80;;;17.20;83.10;;;21.25;41.95;94549.38;6075630;19;20794;-80
2021/11/05 02:16:36;;;;;;;1.15;1.00;;;17.20;83.10;;;21.23;42.07;94546.19;6072782;19;20475;-78
2021/11/05 02:18:37;;;;;;;0.90;0.90;;;17.20;83.10;;;21.22;41.98;94544.56;6068987;19;20015;-80
2021/11/05 02:20:40;;;;;;;1.10;0.98;;;17.20;83.10;;;21.22;42.10;94547.28;6082619;19;20014;-80
2021/11/05 02:22:41;;;;;;;0.90;0.90;;;17.30;83.20;;;21.20;41.82;94547.59;6084658;19;20053;-79
2021/11/05 02:24:42;;;;;;;1.10;0.85;;;17.20;83.10;;;21.20;41.65;94546.78;6067597;19;21110;-79
2021/11/05 02:26:44;;;;;;;1.00;0.90;;;17.20;83.10;;;21.18;41.88;94547.13;6083140;19;20035;-80
2021/11/05 02:28:46;;;;;;;1.42;1.33;;;17.20;83.30;;;21.18;41.87;94549.03;6079626;19;20019;-79
2021/11/05 02:30:50;;;;;;;1.20;1.10;;;17.20;83.30;;;21.17;42.03;94550.97;6076485;19;20448;-79
2021/11/05 02:32:51;;;;;;;0.93;0.93;;;17.20;83.30;;;21.18;42.12;94551.75;6075156;19;20035;-80
2021/11/05 02:34:55;;;;;;;1.10;1.00;;;17.20;83.30;;;21.17;41.84;94555.59;6070294;19;20032;-79
2021/11/05 02:36:56;;;;;;;1.17;0.90;;;17.20;83.30;;;21.18;41.89;94565.31;6081352;19;20006;-80
2021/11/05 02:38:57;;;;;;;1.30;0.80;;;17.20;83.40;;;21.16;42.14;94557.50;6065279;19;20010;-80
2021/11/05 02:40:58;;;;;;;0.85;0.70;;;17.20;83.20;;;21.19;41.75;94561.47;6083255;19;20017;-80
2021/11/05 02:42:59;;;;;;;0.80;0.80;;;17.20;83.20;;;21.18;41.98;94562.59;6088867;19;20018;-80
2021/11/05 02:45:00;;;;;;;2.35;1.00;;;17.20;83.20;;;21.19;41.82;94564.19;6076464;19;20015;-80
2021/11/05 02:47:26;;;;;;;0.85;0.85;;;17.30;83.20;;;21.20;41.67;94563.06;6076836;19;20011;-81
2021/11/05 02:49:27;;;;;;;1.20;1.10;;;17.30;83.20;;;21.20;41.73;94571.97;6077412;19;20010;-80
2021/11/05 02:51:29;;;;;;;1.45;0.90;;;17.30;83.20;;;21.20;42.21;94563.84;6074016;19;20048;-79
2021/11/05 02:53:30;;;;;;;2.25;0.82;;;17.30;83.20;;;21.23;41.60;94573.31;6069645;19;20771;-79
2021/11/05 02:55:31;;;;;;;1.13;0.80;;;17.30;83.20;;;21.23;41.93;94567.88;6077934;19;20570;-79
2021/11/05 02:57:32;;;;;;;0.70;0.70;;;17.30;83.10;;;21.23;41.73;94576.81;6071709;19;20029;-79
2021/11/05 02:59:33;;;;;;;0.85;0.85;;;17.30;83.10;;;21.24;41.83;94574.88;6075006;19;20006;-79
2021/11/05 03:01:36;;;;;;;0.93;0.82;;;17.30;83.20;;;21.25;41.65;94573.75;6050038;19;20377;-79
2021/11/05 03:03:37;;;;;;;0.80;0.80;;;17.30;83.10;;;21.26;41.76;94586.19;6066870;19;20003;-79
2021/11/05 03:05:39;;;;;;;0.80;0.80;;;17.30;83.00;;;21.24;41.72;94583.81;6060474;19;20112;-79
2021/11/05 03:07:40;;;;;;;0.70;0.70;;;17.30;83.00;;;21.26;41.58;94584.28;6073638;19;20978;-79
2021/11/05 03:09:41;;;;;;;4.30;0.77;;;17.30;83.00;;;21.25;41.78;94590.81;6072558;19;20831;-79
2021/11/05 03:11:45;;;;;;;0.90;0.80;;;17.30;83.00;;;21.26;41.56;94594.31;6066954;19;20015;-79
2021/11/05 03:13:46;;;;;;;0.85;0.85;;;17.30;82.90;;;21.26;41.72;94602.47;6082102;19;20120;-79
2021/11/05 03:15:47;;;;;;;1.10;0.75;;;17.30;83.00;;;21.25;41.82;94601.66;6087556;19;20014;-80
2021/11/05 03:17:48;;;;;;;0.90;0.90;;;17.20;82.80;;;21.24;41.99;94605.50;6086386;19;20018;-80
2021/11/05 03:19:49;;;;;;;0.93;0.80;;;17.30;82.80;;;21.23;41.79;94601.22;6082862;19;20011;-80
2021/11/05 03:21:52;;;;;;;0.75;0.75;;;17.30;82.80;;;21.23;41.69;94593.06;6091987;19;20542;-79
2021/11/05 03:23:53;;;;;;;0.77;0.77;;;17.20;82.80;;;21.22;41.93;94605.00;6088508;19;20018;-79
2021/11/05 03:25:54;;;;;;;1.02;0.88;;;17.30;82.90;;;21.22;41.62;94602.31;6071768;19;20044;-80
2021/11/05 03:27:55;;;;;;;0.77;0.68;;;17.20;82.70;;;21.21;42.04;94591.75;6062008;19;20010;-79
2021/11/05 03:29:56;;;;;;;0.88;0.88;;;17.20;82.80;;;21.20;41.63;94601.81;6060509;19;20144;-80
2021/11/05 03:31:57;;;;;;;0.75;0.75;;;17.20;82.70;;;21.20;41.80;94598.31;6072704;19;20556;-79
2021/11/05 03:33:58;;;;;;;0.95;0.88;;;17.20;82.80;;;21.20;41.86;94603.72;6093144;19;20014;-80
2021/11/05 03:35:59;;;;;;;1.00;0.90;;;17.20;82.80;;;21.18;41.74;94606.75;6085218;19;20002;-79
2021/11/05 03:38:00;;;;;;;0.98;0.98;;;17.20;82.90;;;21.17;42.08;94607.09;6075585;19;20049;-81
2021/11/05 03:40:05;;;;;;;0.77;0.77;;;17.20;82.80;;;21.16;41.60;94603.59;6073785;19;20002;-79
2021/11/05 03:42:06;;;;;;;0.88;0.80;;;17.20;82.80;;;21.15;41.96;94606.63;6082951;19;20014;-79
2021/11/05 03:44:07;;;;;;;0.70;0.70;;;17.20;82.80;;;21.16;41.85;94619.06;6080381;19;20022;-80
2021/11/05 03:46:08;;;;;;;0.75;0.75;;;17.20;82.80;;;21.14;42.02;94616.69;6087356;19;20525;-80
2021/11/05 03:48:09;;;;;;;0.60;0.60;;;17.20;82.80;;;21.13;41.84;94617.00;6091237;19;20015;-79
2021/11/05 03:50:11;;;;;;;0.88;0.88;;;17.20;82.90;;;21.13;41.96;94623.22;6073639;19;20863;-81
2021/11/05 03:52:12;;;;;;;0.70;0.70;;;17.20;82.90;;;21.12;41.79;94618.91;6060150;19;20018;-79
2021/11/05 03:54:13;;;;;;;1.23;0.90;;;17.20;82.90;;;21.11;41.94;94617.34;6074714;19;20019;-80
2021/11/05 03:56:14;;;;;;;1.42;0.80;;;17.10;82.90;;;21.12;41.87;94623.56;6052142;19;20018;-79
2021/11/05 03:58:15;;;;;;;0.65;0.63;;;17.20;83.00;;;21.13;41.88;94630.56;6054361;19;20306;-80
2021/11/05 04:00:16;;;;;;;0.73;0.73;;;17.10;82.80;;;21.12;41.89;94627.06;6074778;19;20047;-80
2021/11/05 04:02:17;;;;;;;1.23;1.13;;;17.20;83.00;;;21.12;41.87;94627.06;6072273;19;20419;-80
2021/11/05 04:04:19;;;;;;;0.93;0.80;;;17.20;82.90;;;21.12;42.11;94634.38;6072675;19;20035;-79
2021/11/05 04:06:22;;;;;;;1.10;1.00;;;17.20;82.80;;;21.13;42.09;94638.69;6091831;19;21005;-79
2021/11/05 04:08:22;;;;;;;0.75;0.75;;;17.20;82.80;;;21.13;41.90;94633.25;6081368;19;20039;-79
2021/11/05 04:10:23;;;;;;;0.68;0.68;;;17.10;82.60;;;21.13;41.58;94633.25;6072691;19;20018;-79
2021/11/05 04:12:24;;;;;;;2.30;0.70;;;17.20;82.80;;;21.13;41.79;94634.06;6080848;19;20235;-78
2021/11/05 04:14:25;;;;;;;0.68;0.68;;;17.20;82.60;;;21.14;41.59;94632.16;6059170;19;20054;-79
2021/11/05 04:16:26;;;;;;;0.70;0.70;;;17.20;82.60;;;21.14;41.99;94641.06;6062122;19;20006;-80
2021/11/05 04:18:26;;;;;;;0.70;0.70;;;17.20;82.60;;;21.15;41.84;94642.66;6066231;19;20086;-80
2021/11/05 04:20:27;;;;;;;0.70;0.70;;;17.20;82.60;;;21.14;41.83;94641.06;6062192;19;20024;-80
2021/11/05 04:22:28;;;;;;;0.60;0.60;;;17.20;82.60;;;21.15;41.82;94644.56;6057611;19;20014;-79
2021/11/05 04:24:29;;;;;;;0.65;0.65;;;17.20;82.50;;;21.15;41.79;94647.28;6058639;19;20015;-80
2021/11/05 04:26:30;;;;;;;1.80;0.90;;;17.20;82.50;;;21.15;41.76;94647.28;6062617;19;20043;-79
2021/11/05 04:28:31;;;;;;;0.60;0.60;;;17.20;82.50;;;21.15;41.97;94652.72;6066964;19;20036;-79
2021/11/05 04:30:32;;;;;;;0.60;0.60;;;17.20;82.50;;;21.13;41.74;94649.53;6070406;19;20014;-79
2021/11/05 04:32:33;;;;;;;0.80;0.80;;;17.20;82.50;;;21.14;41.74;94656.53;6067874;19;20014;-79
2021/11/05 04:34:33;;;;;;;0.52;0.52;;;17.20;82.40;;;21.13;41.41;94654.94;6059627;19;20831;-78
2021/11/05 04:36:34;;;;;;;0.80;0.80;;;17.20;82.50;;;21.13;41.88;94663.09;6070731;19;20037;-79
2021/11/05 04:38:35;;;;;;;1.00;0.77;;;17.20;82.40;;;21.13;41.67;94663.09;6070679;19;20007;-79
2021/11/05 04:40:37;;;;;;;0.60;0.60;;;17.10;82.40;;;21.13;41.79;94668.50;6069581;19;25567;-80
2021/11/05 04:42:38;;;;;;;0.50;0.50;;;17.10;82.50;;;21.11;41.78;94660.69;6079149;19;20006;-80
2021/11/05 04:44:39;;;;;;;0.80;0.80;;;17.10;82.40;;;21.11;41.72;94668.84;6065575;19;20010;-80
2021/11/05 04:46:39;;;;;;;0.80;0.70;;;17.20;82.50;;;21.10;42.02;94663.75;6042945;19;20023;-79
2021/11/05 04:48:40;;;;;;;0.63;0.63;;;17.20;82.50;;;21.10;41.85;94671.88;6059669;19;20087;-81
2021/11/05 04:50:41;;;;;;;0.60;0.60;;;17.10;82.40;;;21.09;41.92;94670.28;6060891;19;20884;-79
2021/11/05 04:52:50;;;;;;;0.60;0.60;;;17.00;82.30;;;21.09;41.72;94673.00;6070722;19;20024;-80
2021/11/05 04:54:51;;;;;;;0.85;0.80;;;17.10;82.40;;;21.07;41.53;94677.94;6073626;19;20011;-81
2021/11/05 04:56:52;;;;;;;0.82;0.82;;;17.10;82.30;;;21.06;41.69;94671.72;6082430;19;20014;-79
2021/11/05 04:58:53;;;;;;;0.75;0.65;;;17.10;82.30;;;21.06;41.95;94665.50;6060143;19;20621;-81
2021/11/05 05:00:54;;;;;;;0.60;0.60;;;17.10;82.30;;;21.07;41.69;94673.31;6061055;19;20014;-81
2021/11/05 05:02:56;;;;;;;0.73;0.73;;;17.10;82.20;;;21.06;41.48;94685.28;6080191;19;23074;-80
2021/11/05 05:04:57;;;;;;;1.33;0.93;;;17.10;82.20;;;21.06;41.95;94682.56;6085338;19;20014;-80
2021/11/05 05:06:58;;;;;;;1.17;0.70;;;17.10;82.20;;;21.06;41.89;94688.00;6083073;19;20049;-79
2021/11/05 05:08:58;;;;;;;1.05;0.70;;;17.10;82.20;;;21.07;41.88;94686.88;6084816;19;20032;-80
2021/11/05 05:10:59;;;;;;;0.60;0.60;;;17.10;82.30;;;21.08;41.74;94691.16;6080607;19;20007;-80
2021/11/05 05:13:00;;;;;;;1.17;0.90;;;17.20;82.40;;;21.09;41.75;94691.97;6076842;19;23886;-80
2021/11/05 05:15:01;;;;;;;0.80;0.80;;;17.10;82.20;;;21.09;41.75;94695.47;6073342;19;20504;-80
2021/11/05 05:17:02;;;;;;;0.88;0.80;;;17.20;82.40;;;21.09;41.62;94697.38;6067951;19;20018;-79
2021/11/05 05:19:03;;;;;;;0.60;0.60;;;17.20;83.00;;;21.11;42.01;94701.34;6072774;19;20374;-81
2021/11/05 05:21:04;;;;;;;2.72;0.80;;;17.20;82.40;;;21.12;41.88;94699.44;6078203;19;20010;-79
2021/11/05 05:23:04;;;;;;;1.75;0.60;;;17.20;82.30;;;21.12;41.71;94697.53;6073519;19;20078;-79
2021/11/05 05:25:08;;;;;;;0.57;0.57;;;17.20;82.30;;;21.12;41.53;94700.25;6075259;19;20081;-80
2021/11/05 05:27:10;;;;;;;0.60;0.60;;;17.20;82.30;;;21.12;41.80;94702.94;6084193;19;20958;-79
2021/11/05 05:29:11;;;;;;;0.80;0.70;;;17.20;82.30;;;21.13;41.47;94707.25;6076843;19;20120;-80
2021/11/05 05:31:12;;;;;;;2.28;0.80;;;17.20;82.30;;;21.13;41.72;94711.88;6079970;19;20040;-80
2021/11/05 05:33:13;;;;;;;0.82;0.60;;;17.20;82.20;;;21.13;41.79;94709.97;6087972;19;20002;-81
2021/11/05 05:35:15;;;;;;;0.60;0.60;;;17.20;82.20;;;21.12;41.65;94713.78;6074336;19;20050;-80
2021/11/05 05:37:16;;;;;;;0.53;0.53;;;17.10;82.10;;;21.13;41.77;94714.59;6084119;19;20011;-80
2021/11/05 05:39:17;;;;;;;0.60;0.60;;;17.10;82.10;;;21.12;41.63;94707.56;6079917;19;20018;-81
2021/11/05 05:41:18;;;;;;;1.08;0.80;;;17.20;82.20;;;21.12;41.92;94718.41;6082075;19;20019;-80
2021/11/05 05:43:18;;;;;;;2.25;0.63;;;17.10;82.00;;;21.11;41.63;94733.88;6091034;19;20654;-81
2021/11/05 05:45:21;;;;;;;0.77;0.50;;;17.10;82.00;;;21.10;41.59;94726.09;6096196;19;20078;-80
2021/11/05 05:47:22;;;;;;;1.33;0.90;;;17.10;82.10;;;21.10;41.68;94732.28;6091346;19;20006;-81
2021/11/05 05:49:23;;;;;;;0.65;0.65;;;17.10;82.00;;;21.10;41.79;94739.63;6090498;19;20013;-80
2021/11/05 05:51:24;;;;;;;1.58;0.60;;;17.10;82.00;;;21.09;41.49;94743.47;6085578;19;20377;-80
2021/11/05 05:53:25;;;;;;;0.88;0.80;;;17.10;82.00;;;21.08;41.86;94747.28;6083473;19;20769;-80
2021/11/05 05:55:28;;;;;;;0.40;0.40;;;17.10;82.10;;;21.07;41.44;94738.38;6089372;19;20045;-80
2021/11/05 05:57:29;;;;;;;0.60;0.60;;;17.10;82.00;;;21.06;41.83;94735.97;6080058;19;20663;-80
2021/11/05 05:59:30;;;;;;;0.77;0.63;;;17.10;82.00;;;21.05;41.81;94735.19;6081972;19;20018;-81
2021/11/05 06:01:31;;;;;;;0.68;0.68;;;17.10;82.10;;;21.06;41.77;94746.81;6084515;19;20010;-80
2021/11/05 06:03:32;;;;;;;0.50;0.50;;;17.10;82.10;;;21.04;41.54;94740.94;6082962;19;20530;-79
2021/11/05 06:05:33;;;;;;;0.60;0.60;;;17.10;82.20;;;21.03;41.47;94745.56;6087471;19;20010;-80
2021/11/05 06:07:34;;;;;;;0.43;0.40;;;17.10;82.20;;;21.03;41.81;94742.84;6088140;19;21597;-80
2021/11/05 06:09:35;;;;;;;0.57;0.57;;;17.10;82.20;;;21.02;41.79;94752.09;6083985;19;20022;-80
2021/11/05 06:11:36;;;;;;;0.40;0.40;;;17.10;82.10;;;21.02;42.00;94762.16;6085812;19;20015;-79
2021/11/05 06:13:37;;;;;;;0.57;0.57;;;17.10;82.10;;;21.01;41.94;94764.06;6077175;19;20446;-79
2021/11/05 06:15:37;;;;;;;0.60;0.60;;;17.10;82.10;;;21.01;41.80;94765.97;6089689;19;20010;-80
2021/11/05 06:17:38;;;;;;;0.63;0.63;;;17.10;82.10;;;21.01;41.54;94768.69;6096969;19;20018;-81
2021/11/05 06:19:39;;;;;;;1.33;0.90;;;17.10;82.20;;;21.02;41.60;94770.28;6089910;19;20497;-80
2021/11/05 06:21:40;;;;;;;0.50;0.50;;;17.10;82.00;;;21.02;41.63;94771.06;6096111;19;20763;-81
2021/11/05 06:23:41;;;;;;;0.55;0.55;;;17.10;82.00;;;21.04;41.52;94773.47;6090540;19;20537;-80
2021/11/05 06:25:42;;;;;;;0.60;0.60;;;17.10;82.00;;;21.05;41.54;94783.19;6091264;19;20401;-80
2021/11/05 06:27:43;;;;;;;0.50;0.50;;;17.10;82.10;;;21.05;41.33;94783.97;6073794;19;20002;-80
2021/11/05 06:29:44;;;;;;;0.63;0.55;;;17.20;82.10;;;21.07;41.72;94794.50;6071740;19;20021;-80
2021/11/05 06:31:45;;;;;;;0.40;0.40;;;17.10;82.00;;;21.09;41.63;94797.66;6064056;19;20010;-79
2021/11/05 06:33:46;;;;;;;0.50;0.50;;;17.10;82.00;;;21.10;41.92;94801.97;6068197;19;20014;-79
2021/11/05 06:35:47;;;;;;;0.63;0.60;;;17.10;82.00;;;21.11;41.89;94800.84;6069827;19;20040;-79
2021/11/05 06:37:49;;;;;;;0.40;0.40;;;17.10;82.00;;;21.12;41.63;94810.56;6052546;19;20014;-80
2021/11/05 06:39:50;;;;;;;0.60;0.60;;;17.20;81.90;;;21.13;41.34;94812.16;6073174;19;20035;-80
2021/11/05 06:41:51;;;;;;;1.38;0.63;;;17.20;81.90;;;21.12;41.85;94805.94;6071924;19;20357;-80
2021/11/05 06:43:53;;;;;;;2.05;0.60;;;17.10;81.90;;;21.13;41.87;94812.97;6072922;19;20616;-79
2021/11/05 06:45:55;;;;;;;0.50;0.47;;;17.10;81.80;;;21.14;41.64;94811.84;6067828;19;20094;-80
2021/11/05 06:47:56;;;;;;;0.82;0.60;;;17.20;81.90;;;21.15;41.38;94816.16;6089421;19;20024;-79
2021/11/05 06:49:57;;;;;;;0.90;0.80;;;17.20;81.90;;;21.14;41.43;94819.19;6066009;19;20017;-80
2021/11/05 06:51:58;;;;;;;1.35;0.90;;;17.20;81.90;;;21.14;41.64;94824.59;6060055;19;20981;-80
2021/11/05 06:53:59;;;;;;;0.80;0.80;;;17.20;81.70;;;21.14;41.36;94825.41;6075145;19;20986;-79
2021/11/05 06:56:00;;;;;;;1.15;0.95;;;17.20;81.80;;;21.14;41.71;94833.53;6057268;19;22165;-80
2021/11/05 06:58:01;;;;;;;1.35;1.00;;;17.10;81.60;;;21.14;41.66;94830.81;6062404;19;20064;-79
2021/11/05 07:00:06;;;;;;;1.58;1.48;;;17.20;81.60;;;21.15;41.34;94837.84;6072540;19;20011;-79
2021/11/05 07:02:07;;;;;;;1.75;1.35;;;17.20;81.60;;;21.13;41.53;94845.50;6063237;19;20026;-80
2021/11/05 07:04:08;;;;;;;1.42;1.17;;;17.10;81.40;;;21.13;41.37;94844.69;6066631;19;20010;-80
2021/11/05 07:06:10;;;;;;;1.90;1.17;;;17.10;81.40;;;21.13;41.60;94852.81;6070006;19;20031;-80
2021/11/05 07:08:11;;;;;;;2.90;1.40;;;17.20;81.50;;;21.12;41.47;94853.94;6068088;19;20018;-80
2021/11/05 07:10:13;;;;;;;2.58;1.77;;;17.20;81.50;;;21.11;41.69;94864.00;6068702;19;20518;-81
2021/11/05 07:12:14;;;;;;;2.15;1.67;;;17.10;81.40;;;21.12;41.51;94867.50;6084834;19;20361;-80
2021/11/05 07:14:16;;;;;;;3.60;2.10;;;17.20;81.60;;;21.11;41.74;94874.03;6078305;19;20595;-80
2021/11/05 07:16:17;;;;;;;2.20;2.00;;;17.20;81.70;;;21.10;41.74;94877.88;6086170;19;20109;-81
2021/11/05 07:18:17;;;;;;;2.55;1.75;;;17.20;81.70;;;21.09;41.56;94881.69;6084249;19;20015;-81
2021/11/05 07:20:18;;;;;;;2.38;1.70;;;17.10;81.50;;;21.08;41.85;94882.81;6084990;19;20003;-81
2021/11/05 07:22:19;;;;;;;4.38;2.28;;;17.10;82.30;;;21.06;41.72;94887.75;6092804;19;20052;-80
2021/11/05 07:24:20;;;;;;;4.15;2.08;;;17.10;81.60;;;21.06;41.65;94890.47;6078627;19;20014;-81
2021/11/05 07:26:22;;;;;;;3.83;2.00;;;17.20;81.80;;;21.06;41.55;94896.69;6080345;19;20019;-80
2021/11/05 07:28:23;;;;;;;5.32;2.22;;;17.10;81.70;;;21.05;41.23;94897.81;6079127;19;20654;-80
2021/11/05 07:30:24;;;;;;;2.55;2.35;;;17.00;81.50;;;21.05;41.33;94902.44;6079497;19;20014;-81
2021/11/05 07:32:25;;;;;;;4.75;2.25;;;17.10;81.70;;;21.03;41.59;94905.47;6085843;19;20689;-81
2021/11/05 07:34:32;;;;;;;2.50;2.25;;;17.10;81.70;;;21.03;41.63;94910.88;6085006;19;20007;-80
2021/11/05 07:36:42;;;;;;;4.15;2.42;;;17.10;81.70;;;21.03;41.63;94910.09;6080491;19;20045;-81
2021/11/05 07:38:56;;;;;;;5.13;2.55;;;17.10;81.60;;;21.03;41.77;94910.88;6083355;19;20007;-81
2021/11/05 07:41:05;;;;;;;3.72;2.20;;;17.10;81.70;;;21.04;41.61;94915.19;6073059;19;20014;-80
2021/11/05 07:43:09;;;;;;;4.13;2.25;;;17.10;81.80;;;21.05;41.63;94921.41;6077524;19;20297;-81
2021/11/05 07:45:16;;;;;;;3.42;2.35;;;17.10;81.80;;;21.07;41.65;94921.88;6079783;19;20074;-81
2021/11/05 07:47:23;;;;;;;2.45;2.20;;;17.20;82.00;;;21.08;41.63;94926.97;6082104;19;20613;-79
2021/11/05 07:49:34;;;;;;;4.13;2.80;;;17.10;82.00;;;21.10;41.75;94929.38;6086090;19;21203;-80
2021/11/05 07:51:55;;;;;;;3.25;2.80;;;17.10;82.00;;;21.12;41.74;94937.97;6082525;19;20442;-82
2021/11/05 07:54:00;;;;;;;3.22;2.60;;;17.20;82.90;;;21.13;41.70;94943.06;6089574;19;20039;-82
2021/11/05 07:56:06;;;;;;;4.93;2.63;;;17.10;82.00;;;21.13;41.57;94943.06;6080208;19;20019;-81
2021/11/05 07:58:27;;;;;;;4.03;2.78;;;17.20;82.20;;;21.16;41.43;94947.06;6078683;19;20507;-82
2021/11/05 08:00:35;;;;;;;2.60;2.40;;;17.20;82.10;;;21.17;41.65;94945.94;6082658;19;20006;-81
2021/11/05 08:02:36;;;;;;;3.63;2.60;;;17.20;82.00;;;21.18;41.53;94948.34;6080871;19;20032;-80
2021/11/05 08:04:40;;;;;;;5.82;3.40;;;17.20;82.00;;;21.18;41.60;94959.19;6081482;19;20007;-81
2021/11/05 08:06:51;;;;;;;3.50;2.85;;;17.30;81.90;;;21.19;41.51;94957.25;6080692;19;20018;-81
2021/11/05 08:13:16;;;;;;;4.50;3.00;;;17.20;81.70;;;21.22;41.67;94970.19;6089030;19;20376;-82
2021/11/05 08:18:58;;;;;;;6.70;3.28;;;17.30;81.70;;;21.20;41.37;94985.97;6074725;19;20010;-81
2021/11/05 08:20:59;;;;;;;9.52;3.50;;;17.20;81.50;;;21.20;41.60;94985.97;6091608;19;20082;-81
2021/11/05 08:23:09;;;;;;;4.45;3.00;;;17.20;81.50;;;21.20;41.48;94991.38;6088509;19;20473;-84
2021/11/05 08:25:28;;;;;;;6.53;3.30;;;17.30;81.60;;;21.20;41.51;95002.22;6086985;19;20006;-81
2021/11/05 08:30:58;;;;;;;4.13;3.25;;;17.20;81.40;;;21.18;41.51;95009.88;6096449;19;20010;-81
2021/11/05 08:33:02;;;;;;;6.30;3.00;;;17.20;81.30;;;21.18;41.38;95012.59;6093137;19;20393;-80
2021/11/05 08:35:56;;;;;;;9.70;2.72;;;17.20;81.30;;;21.17;41.61;95005.59;6091908;19;20010;-81
2021/11/05 08:38:08;;;;;;;6.45;3.08;;;17.20;81.40;;;21.18;41.21;95018.03;6090505;19;20010;-81
2021/11/05 08:40:15;;;;;;;6.03;2.30;;;17.20;81.40;;;21.17;41.73;95019.94;6084970;19;20429;-80
2021/11/05 08:42:21;;;;;;;4.95;2.97;;;17.20;81.30;;;21.16;41.21;95021.06;6086857;19;21052;-82
2021/11/05 08:44:35;;;;;;;5.45;3.05;;;17.20;81.30;;;21.17;41.25;95021.84;6087766;19;20026;-81
2021/11/05 08:46:50;;;;;;;4.97;2.63;;;17.20;81.30;;;21.15;41.49;95032.22;6091187;19;20033;-80